createdAt,value
2017-08-17T00:01:36.301Z,61.80
2017-08-17T00:04:10.846Z,61.80
2017-08-17T00:06:45.410Z,61.70
2017-08-17T00:09:19.930Z,61.80
2017-08-17T00:11:54.441Z,61.80
2017-08-17T00:14:29.125Z,62.00
2017-08-17T00:17:03.722Z,62.30
2017-08-17T00:19:38.312Z,62.20
2017-08-17T00:22:12.898Z,62.20
2017-08-17T00:24:47.599Z,62.70
2017-08-17T00:27:22.157Z,62.70
2017-08-17T00:29:56.595Z,62.60
2017-08-17T00:32:31.210Z,62.20
2017-08-17T00:35:05.306Z,62.50
2017-08-17T00:37:40.538Z,62.20
2017-08-17T00:40:18.916Z,62.50
2017-08-17T00:42:53.890Z,62.50
2017-08-17T00:45:31.946Z,62.60
2017-08-17T00:48:06.672Z,62.90
2017-08-17T00:50:40.925Z,62.60
2017-08-17T00:53:15.366Z,62.90
2017-08-17T00:55:49.590Z,62.80
2017-08-17T00:58:24.062Z,62.60
2017-08-17T01:00:58.233Z,62.70
2017-08-17T01:03:32.750Z,62.70
2017-08-17T01:06:08.003Z,62.60
2017-08-17T01:08:41.962Z,62.90
2017-08-17T01:11:16.414Z,63.00
2017-08-17T01:13:50.982Z,63.40
2017-08-17T01:16:25.562Z,63.50
2017-08-17T01:19:00.189Z,63.70
2017-08-17T01:21:34.462Z,63.70
2017-08-17T01:24:08.914Z,63.70
2017-08-17T01:26:42.871Z,63.40
2017-08-17T01:29:16.710Z,63.40
2017-08-17T01:31:50.662Z,63.10
2017-08-17T01:34:25.175Z,63.40
2017-08-17T01:36:59.081Z,63.30
2017-08-17T01:39:33.381Z,63.30
2017-08-17T01:42:08.388Z,63.90
2017-08-17T01:44:42.437Z,63.90
2017-08-17T01:47:26.107Z,63.80
2017-08-17T01:50:01.298Z,64.10
2017-08-17T01:52:35.494Z,63.90
2017-08-17T01:55:12.693Z,63.90
2017-08-17T01:57:46.705Z,64.10
2017-08-17T02:00:23.133Z,64.40
2017-08-17T02:02:57.579Z,64.30
2017-08-17T02:05:31.770Z,64.30
2017-08-17T02:08:06.038Z,64.60
2017-08-17T02:10:40.610Z,64.60
2017-08-17T02:13:15.986Z,64.70
2017-08-17T02:15:50.562Z,64.60
2017-08-17T02:18:25.134Z,64.60
2017-08-17T02:20:59.751Z,64.80
2017-08-17T02:23:34.302Z,65.20
2017-08-17T02:26:08.937Z,65.40
2017-08-17T02:28:43.362Z,65.30
2017-08-17T02:31:17.962Z,65.90
2017-08-17T02:33:52.517Z,66.20
2017-08-17T02:36:27.057Z,66.20
2017-08-17T02:39:01.545Z,66.30
2017-08-17T02:41:36.106Z,66.80
2017-08-17T02:44:10.519Z,66.80
2017-08-17T02:46:45.054Z,66.50
2017-08-17T02:49:19.503Z,66.80
2017-08-17T02:54:37.830Z,67.00
2017-08-17T02:57:12.478Z,67.40
2017-08-17T02:59:46.926Z,67.70
2017-08-17T03:02:21.525Z,68.00
2017-08-17T03:04:56.162Z,68.10
2017-08-17T03:07:30.870Z,68.20
2017-08-17T03:10:05.398Z,68.30
2017-08-17T03:12:40.038Z,68.40
2017-08-17T03:15:15.187Z,68.70
2017-08-17T03:17:49.805Z,68.90
2017-08-17T03:20:30.514Z,69.10
2017-08-17T03:23:04.990Z,69.10
2017-08-17T03:25:39.594Z,69.30
2017-08-17T03:28:14.199Z,69.30
2017-08-17T03:30:48.774Z,69.50
2017-08-17T03:33:23.975Z,69.40
2017-08-17T03:35:58.542Z,69.40
2017-08-17T03:38:33.299Z,69.70
2017-08-17T03:41:07.930Z,69.70
2017-08-17T03:43:42.493Z,69.90
2017-08-17T03:46:17.033Z,70.10
2017-08-17T03:48:51.606Z,70.20
2017-08-17T03:51:26.203Z,70.30
2017-08-17T03:54:00.797Z,70.40
2017-08-17T03:56:35.366Z,70.50
2017-08-17T03:59:09.858Z,70.40
2017-08-17T04:01:44.614Z,70.10
2017-08-17T04:04:19.073Z,70.20
2017-08-17T04:06:54.378Z,70.30
2017-08-17T04:09:29.006Z,70.30
2017-08-17T04:12:04.346Z,70.80
2017-08-17T04:14:38.818Z,70.10
2017-08-17T04:17:13.406Z,69.90
2017-08-17T04:19:47.962Z,69.90
2017-08-17T04:22:22.653Z,70.10
2017-08-17T04:24:57.203Z,70.10
2017-08-17T04:27:31.762Z,70.10
2017-08-17T04:30:06.359Z,69.90
2017-08-17T04:32:40.901Z,69.90
2017-08-17T04:35:23.724Z,70.10
2017-08-17T04:37:59.158Z,69.90
2017-08-17T04:40:34.262Z,69.90
2017-08-17T04:43:08.819Z,70.10
2017-08-17T04:45:43.394Z,70.20
2017-08-17T04:48:17.982Z,70.50
2017-08-17T04:50:52.534Z,70.40
2017-08-17T04:53:27.218Z,70.40
2017-08-17T04:56:18.565Z,70.20
2017-08-17T04:58:52.999Z,70.10
2017-08-17T05:01:27.582Z,70.10
2017-08-17T05:04:02.692Z,70.00
2017-08-17T05:06:37.952Z,69.70
2017-08-17T05:09:12.642Z,69.50
2017-08-17T05:11:47.274Z,69.40
2017-08-17T05:14:21.841Z,69.00
2017-08-17T05:16:57.242Z,68.80
2017-08-17T05:19:31.834Z,68.70
2017-08-17T05:22:06.637Z,68.50
2017-08-17T05:24:41.109Z,68.10
2017-08-17T05:27:15.695Z,68.20
2017-08-17T05:29:50.173Z,67.70
2017-08-17T05:32:24.726Z,67.60
2017-08-17T05:34:59.239Z,67.30
2017-08-17T05:37:33.705Z,67.20
2017-08-17T05:40:08.354Z,67.10
2017-08-17T05:42:43.913Z,66.50
2017-08-17T05:54:15.573Z,66.00
2017-08-17T05:56:50.134Z,65.70
2017-08-17T05:59:24.581Z,65.60
2017-08-17T06:01:59.150Z,65.50
2017-08-17T06:04:33.725Z,65.20
2017-08-17T06:07:08.373Z,65.20
2017-08-17T06:09:42.866Z,65.20
2017-08-17T06:12:17.510Z,65.00
2017-08-17T06:14:52.042Z,64.80
2017-08-17T06:17:26.569Z,65.00
2017-08-17T06:20:01.265Z,64.90
2017-08-17T06:22:35.838Z,64.60
2017-08-17T06:27:59.102Z,64.30
2017-08-17T06:30:33.637Z,64.10
2017-08-17T06:33:08.062Z,63.70
2017-08-17T06:35:42.641Z,63.80
2017-08-17T06:38:17.259Z,63.90
2017-08-17T06:40:51.822Z,64.00
2017-08-17T06:43:26.446Z,64.00
2017-08-17T06:46:00.995Z,63.70
2017-08-17T06:48:35.622Z,63.30
2017-08-17T06:51:10.203Z,63.00
2017-08-17T06:53:45.594Z,62.60
2017-08-17T06:56:20.118Z,62.50
2017-08-17T06:58:55.435Z,62.00
2017-08-17T07:01:30.065Z,61.80
2017-08-17T07:04:04.557Z,61.60
2017-08-17T07:06:39.207Z,61.10
2017-08-17T07:09:13.862Z,60.90
2017-08-17T07:11:48.421Z,60.90
2017-08-17T07:14:22.838Z,60.50
2017-08-17T07:16:57.426Z,60.00
2017-08-17T07:19:31.871Z,59.60
2017-08-17T07:22:06.423Z,58.90
2017-08-17T07:24:40.999Z,58.50
2017-08-17T07:27:15.577Z,58.30
2017-08-17T07:29:50.241Z,57.60
2017-08-17T07:32:25.553Z,56.10
2017-08-17T07:35:00.110Z,56.10
2017-08-17T07:37:34.730Z,56.00
2017-08-17T07:40:10.094Z,54.70
2017-08-17T07:42:44.668Z,54.70
2017-08-17T07:45:25.262Z,54.00
2017-08-17T07:47:59.885Z,53.70
2017-08-17T07:53:18.410Z,52.10
2017-08-17T07:55:53.050Z,51.90
2017-08-17T07:58:27.567Z,51.40
2017-08-17T08:01:02.126Z,50.60
2017-08-17T08:03:36.670Z,49.80
2017-08-17T08:06:10.815Z,49.50
2017-08-17T08:08:45.227Z,49.40
2017-08-17T08:11:19.825Z,49.20
2017-08-17T08:13:55.170Z,47.90
2017-08-17T08:16:30.574Z,47.90
2017-08-17T08:19:05.183Z,47.90
2017-08-17T08:21:39.742Z,47.10
2017-08-17T08:24:15.066Z,46.60
2017-08-17T08:26:49.581Z,46.60
2017-08-17T08:29:24.195Z,45.90
2017-08-17T08:31:58.729Z,46.00
2017-08-17T08:34:33.166Z,45.90
2017-08-17T08:37:07.743Z,45.70
2017-08-17T08:39:42.158Z,45.20
2017-08-17T08:42:16.670Z,45.10
2017-08-17T08:44:51.122Z,44.60
2017-08-17T08:47:25.636Z,44.10
2017-08-17T08:50:00.109Z,43.30
2017-08-17T08:52:35.437Z,43.00
2017-08-17T08:55:13.050Z,43.00
2017-08-17T08:57:47.622Z,43.00
2017-08-17T09:00:29.124Z,42.70
2017-08-17T09:03:03.573Z,42.00
2017-08-17T09:05:38.117Z,41.50
2017-08-17T09:08:12.705Z,41.40
2017-08-17T09:10:47.350Z,41.00
2017-08-17T09:13:21.799Z,41.20
2017-08-17T09:15:56.357Z,40.80
2017-08-17T09:18:30.982Z,40.40
2017-08-17T09:21:07.199Z,41.00
2017-08-17T09:23:41.682Z,40.30
2017-08-17T09:26:16.341Z,39.30
2017-08-17T09:28:50.903Z,39.10
2017-08-17T09:31:25.414Z,38.70
2017-08-17T09:33:59.981Z,38.00
2017-08-17T09:36:34.582Z,38.40
2017-08-17T09:39:09.210Z,38.50
2017-08-17T09:41:43.707Z,38.40
2017-08-17T09:44:18.258Z,38.10
2017-08-17T09:46:52.933Z,37.60
2017-08-17T09:49:27.542Z,37.60
2017-08-17T09:52:02.082Z,36.80
2017-08-17T09:54:36.626Z,36.50
2017-08-17T09:57:11.174Z,36.30
2017-08-17T09:59:45.866Z,36.00
2017-08-17T10:02:20.413Z,36.40
2017-08-17T10:04:54.902Z,35.80
2017-08-17T10:07:29.689Z,35.60
2017-08-17T10:10:04.216Z,35.20
2017-08-17T10:12:38.774Z,35.20
2017-08-17T10:15:13.335Z,35.00
2017-08-17T10:17:47.773Z,35.60
2017-08-17T10:20:22.274Z,35.30
2017-08-17T10:22:56.681Z,35.70
2017-08-17T10:25:31.314Z,34.80
2017-08-17T10:28:05.838Z,34.20
2017-08-17T10:30:40.362Z,34.00
2017-08-17T10:33:14.813Z,34.30
2017-08-17T10:35:49.357Z,33.70
2017-08-17T10:38:23.801Z,33.90
2017-08-17T10:40:58.516Z,33.60
2017-08-17T10:43:33.067Z,33.10
2017-08-17T10:46:07.622Z,32.70
2017-08-17T10:48:42.829Z,33.70
2017-08-17T10:51:17.315Z,33.70
2017-08-17T10:53:51.747Z,33.50
2017-08-17T10:56:26.298Z,33.20
2017-08-17T10:59:00.958Z,32.70
2017-08-17T11:01:35.550Z,32.40
2017-08-17T11:04:10.042Z,31.90
2017-08-17T11:06:44.549Z,32.20
2017-08-17T11:09:19.105Z,32.20
2017-08-17T11:11:54.454Z,31.80
2017-08-17T11:14:29.694Z,31.30
2017-08-17T11:17:04.141Z,31.50
2017-08-17T11:19:38.570Z,31.50
2017-08-17T11:22:13.185Z,31.20
2017-08-17T11:24:47.649Z,31.50
2017-08-17T11:27:22.238Z,31.50
2017-08-17T11:29:56.790Z,31.40
2017-08-17T11:32:31.426Z,30.90
2017-08-17T11:35:06.030Z,31.00
2017-08-17T11:37:40.592Z,30.90
2017-08-17T11:40:15.186Z,30.90
2017-08-17T11:42:49.740Z,31.20
2017-08-17T11:45:24.222Z,30.40
2017-08-17T11:47:58.848Z,29.00
2017-08-17T11:50:33.293Z,30.10
2017-08-17T11:53:08.686Z,31.50
2017-08-17T11:55:44.116Z,31.30
2017-08-17T11:58:19.290Z,31.30
2017-08-17T12:00:53.891Z,31.80
2017-08-17T12:03:28.309Z,31.30
2017-08-17T12:06:02.878Z,31.60
2017-08-17T12:08:37.351Z,31.70
2017-08-17T12:11:11.934Z,32.00
2017-08-17T12:13:46.486Z,31.40
2017-08-17T12:16:21.065Z,31.80
2017-08-17T12:18:55.573Z,31.90
2017-08-17T12:21:30.879Z,31.60
2017-08-17T12:24:05.350Z,31.00
2017-08-17T12:26:39.929Z,30.90
2017-08-17T12:29:14.465Z,30.90
2017-08-17T12:31:49.637Z,31.00
2017-08-17T12:34:24.193Z,30.90
2017-08-17T12:36:58.654Z,30.90
2017-08-17T12:39:33.095Z,30.10
2017-08-17T12:42:07.693Z,30.30
2017-08-17T12:44:42.197Z,30.70
2017-08-17T12:47:16.734Z,31.00
2017-08-17T12:49:51.153Z,31.00
2017-08-17T12:52:25.702Z,31.20
2017-08-17T12:55:00.350Z,31.40
2017-08-17T12:57:34.885Z,31.70
2017-08-17T13:00:09.561Z,31.90
2017-08-17T13:02:44.157Z,31.90
2017-08-17T13:05:18.761Z,32.40
2017-08-17T13:07:53.406Z,32.20
2017-08-17T13:10:27.977Z,31.90
2017-08-17T13:13:02.525Z,31.40
2017-08-17T13:15:37.129Z,31.30
2017-08-17T13:18:11.577Z,31.20
2017-08-17T13:20:46.087Z,31.00
2017-08-17T13:23:20.566Z,31.20
2017-08-17T13:25:55.121Z,31.40
2017-08-17T13:28:29.705Z,31.40
2017-08-17T13:31:04.324Z,31.30
2017-08-17T13:33:39.006Z,31.40
2017-08-17T13:36:13.542Z,30.40
2017-08-17T13:38:47.985Z,30.90
2017-08-17T13:41:22.574Z,31.40
2017-08-17T13:43:57.061Z,31.60
2017-08-17T13:46:31.545Z,32.00
2017-08-17T13:49:06.161Z,31.80
2017-08-17T13:51:40.781Z,31.90
2017-08-17T13:54:15.254Z,32.50
2017-08-17T13:56:49.803Z,32.30
2017-08-17T13:59:24.243Z,31.70
2017-08-17T14:01:58.841Z,31.70
2017-08-17T14:04:33.293Z,31.70
2017-08-17T14:07:07.842Z,31.60
2017-08-17T14:09:42.318Z,31.90
2017-08-17T14:12:16.869Z,31.90
2017-08-17T14:14:51.384Z,31.40
2017-08-17T14:17:25.942Z,31.20
2017-08-17T14:20:00.578Z,30.70
2017-08-17T14:22:35.139Z,30.50
2017-08-17T14:25:09.769Z,30.20
2017-08-17T14:27:44.217Z,29.90
2017-08-17T14:30:18.798Z,30.00
2017-08-17T14:32:53.301Z,30.20
2017-08-17T14:35:27.831Z,30.20
2017-08-17T14:38:02.254Z,30.40
2017-08-17T14:40:37.622Z,30.70
2017-08-17T14:43:12.082Z,30.70
2017-08-17T14:45:46.581Z,30.60
2017-08-17T14:48:21.097Z,31.00
2017-08-17T14:50:55.642Z,31.60
2017-08-17T14:53:30.237Z,31.70
2017-08-17T14:56:04.733Z,31.70
2017-08-17T14:58:39.239Z,31.70
2017-08-17T15:01:13.741Z,32.10
2017-08-17T15:03:48.370Z,31.90
2017-08-17T15:06:22.933Z,32.30
2017-08-17T15:08:57.385Z,32.30
2017-08-17T15:11:31.950Z,32.80
2017-08-17T15:14:06.649Z,32.80
2017-08-17T15:16:41.214Z,32.70
2017-08-17T15:19:15.837Z,33.20
2017-08-17T15:21:50.401Z,33.50
2017-08-17T15:24:24.937Z,33.20
2017-08-17T15:26:59.462Z,33.80
2017-08-17T15:29:34.109Z,33.60
2017-08-17T15:32:08.658Z,33.80
2017-08-17T15:34:43.841Z,33.60
2017-08-17T15:37:18.413Z,33.60
2017-08-17T15:39:52.987Z,33.70
2017-08-17T15:42:27.585Z,34.10
2017-08-17T15:45:02.934Z,34.10
2017-08-17T15:47:37.459Z,34.90
2017-08-17T15:50:11.983Z,34.10
2017-08-17T15:52:46.442Z,34.30
2017-08-17T15:55:21.075Z,34.60
2017-08-17T15:57:55.544Z,34.70
2017-08-17T16:00:30.113Z,34.80
2017-08-17T16:03:04.707Z,34.90
2017-08-17T16:05:39.255Z,35.10
2017-08-17T16:08:13.674Z,35.60
2017-08-17T16:10:49.018Z,35.50
2017-08-17T16:13:23.758Z,35.50
2017-08-17T16:15:58.305Z,35.70
2017-08-17T16:18:32.754Z,36.20
2017-08-17T16:21:07.337Z,36.10
2017-08-17T16:23:41.986Z,36.10
2017-08-17T16:26:16.553Z,36.40
2017-08-17T16:28:50.986Z,36.30
2017-08-17T16:31:25.493Z,35.90
2017-08-17T16:33:59.914Z,36.20
2017-08-17T16:36:34.593Z,36.40
2017-08-17T16:39:09.199Z,36.40
2017-08-17T16:41:43.796Z,36.50
2017-08-17T16:44:19.077Z,36.40
2017-08-17T16:46:53.641Z,36.90
2017-08-17T16:49:28.100Z,36.60
2017-08-17T16:52:02.678Z,36.80
2017-08-17T16:54:37.270Z,36.80
2017-08-17T16:57:11.436Z,36.80
2017-08-17T16:59:45.953Z,37.00
2017-08-17T17:02:20.488Z,37.20
2017-08-17T17:04:55.117Z,37.10
2017-08-17T17:07:29.726Z,37.00
2017-08-17T17:10:04.363Z,37.00
2017-08-17T17:12:38.901Z,37.10
2017-08-17T17:15:13.382Z,37.30
2017-08-17T17:17:48.046Z,37.50
2017-08-17T17:20:22.545Z,37.60
2017-08-17T17:22:57.001Z,37.40
2017-08-17T17:25:31.549Z,37.50
2017-08-17T17:28:06.144Z,37.70
2017-08-17T17:30:40.741Z,37.80
2017-08-17T17:33:14.896Z,38.10
2017-08-17T17:35:50.129Z,38.00
2017-08-17T17:38:24.566Z,38.00
2017-08-17T17:40:59.131Z,38.30
2017-08-17T17:43:33.750Z,38.60
2017-08-17T17:46:08.289Z,38.60
2017-08-17T17:48:42.817Z,38.60
2017-08-17T17:51:17.066Z,38.70
2017-08-17T17:53:51.621Z,39.10
2017-08-17T17:56:26.196Z,39.10
2017-08-17T17:59:00.626Z,39.70
2017-08-17T18:01:35.178Z,39.70
2017-08-17T18:04:09.629Z,39.90
2017-08-17T18:06:44.191Z,40.00
2017-08-17T18:09:18.761Z,40.30
2017-08-17T18:11:53.258Z,39.80
2017-08-17T18:14:27.821Z,40.10
2017-08-17T18:17:02.397Z,40.90
2017-08-17T18:19:36.954Z,41.10
2017-08-17T18:22:11.480Z,40.90
2017-08-17T18:24:46.068Z,41.00
2017-08-17T18:27:20.649Z,42.50
2017-08-17T18:29:55.313Z,43.20
2017-08-17T18:32:29.883Z,44.40
2017-08-17T18:35:04.464Z,44.60
2017-08-17T18:37:39.001Z,45.80
2017-08-17T18:40:13.444Z,47.00
2017-08-17T18:42:48.066Z,47.40
2017-08-17T18:45:23.991Z,47.90
2017-08-17T18:47:58.426Z,48.70
2017-08-17T18:50:33.045Z,49.40
2017-08-17T18:53:07.566Z,49.40
2017-08-17T18:55:43.013Z,50.00
2017-08-17T18:58:17.477Z,50.00
2017-08-17T19:00:52.173Z,50.60
2017-08-17T19:03:26.825Z,51.00
2017-08-17T19:06:02.167Z,51.80
2017-08-17T19:08:36.795Z,51.80
2017-08-17T19:11:11.546Z,51.90
2017-08-17T19:13:46.107Z,52.50
2017-08-17T19:16:20.609Z,52.70
2017-08-17T19:18:55.193Z,52.60
2017-08-17T19:21:29.644Z,52.60
2017-08-17T19:24:04.101Z,52.90
2017-08-17T19:26:38.665Z,52.90
2017-08-17T19:29:13.078Z,53.40
2017-08-17T19:31:47.943Z,53.40
2017-08-17T19:34:22.534Z,53.60
2017-08-17T19:36:57.182Z,53.70
2017-08-17T19:39:31.772Z,53.20
2017-08-17T19:42:06.408Z,53.50
2017-08-17T19:44:40.962Z,53.70
2017-08-17T19:47:15.499Z,53.10
2017-08-17T19:49:50.173Z,52.90
2017-08-17T19:52:24.833Z,53.20
2017-08-17T19:54:59.343Z,53.30
2017-08-17T19:57:33.954Z,53.40
2017-08-17T20:00:08.445Z,53.70
2017-08-17T20:02:43.806Z,54.10
2017-08-17T20:05:18.394Z,54.10
2017-08-17T20:07:52.854Z,53.80
2017-08-17T20:13:11.389Z,53.70
2017-08-17T20:15:45.901Z,54.10
2017-08-17T20:18:20.571Z,54.40
2017-08-17T20:20:55.125Z,54.20
2017-08-17T20:23:29.690Z,54.20
2017-08-17T20:26:04.288Z,54.20
2017-08-17T20:28:38.709Z,54.30
2017-08-17T20:31:13.334Z,54.40
2017-08-17T20:33:47.815Z,54.40
2017-08-17T20:36:23.185Z,55.40
2017-08-17T20:38:57.681Z,54.80
2017-08-17T20:41:33.025Z,54.90
2017-08-17T20:44:07.703Z,54.90
2017-08-17T20:46:42.282Z,54.30
2017-08-17T20:49:16.686Z,54.80
2017-08-17T20:51:51.197Z,54.80
2017-08-17T20:54:25.698Z,54.90
2017-08-17T20:57:00.283Z,55.00
2017-08-17T20:59:34.881Z,55.20
2017-08-17T21:02:10.151Z,55.00
2017-08-17T21:04:45.601Z,55.00
2017-08-17T21:07:20.221Z,55.00
2017-08-17T21:09:54.810Z,55.10
2017-08-17T21:12:29.382Z,55.10
2017-08-17T21:15:03.577Z,55.30
2017-08-17T21:17:38.190Z,55.30
2017-08-17T21:20:12.622Z,55.30
2017-08-17T21:22:47.098Z,55.60
2017-08-17T21:25:21.671Z,55.60
2017-08-17T21:27:56.161Z,55.80
2017-08-17T21:30:30.754Z,55.90
2017-08-17T21:33:05.341Z,55.80
2017-08-17T21:35:39.986Z,55.90
2017-08-17T21:38:14.732Z,56.10
2017-08-17T21:40:49.290Z,56.30
2017-08-17T21:43:23.978Z,56.30
2017-08-17T21:45:58.565Z,56.40
2017-08-17T21:48:33.008Z,56.40
2017-08-17T21:51:07.514Z,56.60
2017-08-17T21:53:41.994Z,56.50
2017-08-17T21:56:16.504Z,56.30
2017-08-17T21:58:51.809Z,56.80
2017-08-17T22:01:26.411Z,56.70
2017-08-17T22:04:01.781Z,56.90
2017-08-17T22:06:36.289Z,56.90
2017-08-17T22:09:10.825Z,56.90
2017-08-17T22:11:45.361Z,57.10
2017-08-17T22:14:19.977Z,57.10
2017-08-17T22:16:54.526Z,57.00
2017-08-17T22:19:28.946Z,57.00
2017-08-17T22:22:03.573Z,57.10
2017-08-17T22:24:38.125Z,57.20
2017-08-17T22:27:12.729Z,57.30
2017-08-17T22:29:47.929Z,57.40
2017-08-17T22:32:22.540Z,57.30
2017-08-17T22:34:56.794Z,57.40
2017-08-17T22:37:31.398Z,57.40
2017-08-17T22:40:05.899Z,57.50
2017-08-17T22:42:40.465Z,57.60
2017-08-17T22:45:15.214Z,57.60
2017-08-17T22:47:49.817Z,57.60
2017-08-17T22:50:24.383Z,57.70
2017-08-17T22:52:58.837Z,57.70
2017-08-17T22:55:33.393Z,57.60
2017-08-17T22:58:08.041Z,57.60
2017-08-17T23:00:42.643Z,57.60
2017-08-17T23:03:17.321Z,57.60
2017-08-17T23:05:51.770Z,57.80
2017-08-17T23:08:26.376Z,58.20
2017-08-17T23:11:00.933Z,58.40
2017-08-17T23:13:35.365Z,58.70
2017-08-17T23:16:09.962Z,58.80
2017-08-17T23:18:44.526Z,58.90
2017-08-17T23:21:19.045Z,59.00
2017-08-17T23:23:53.701Z,58.90
2017-08-17T23:26:28.206Z,59.20
2017-08-17T23:29:02.845Z,59.40
2017-08-17T23:31:37.396Z,59.30
2017-08-17T23:34:11.883Z,59.30
2017-08-17T23:36:46.654Z,59.40
2017-08-17T23:39:21.280Z,59.60
2017-08-17T23:41:56.008Z,59.90
2017-08-17T23:44:30.425Z,59.90
2017-08-17T23:47:05.004Z,60.00
2017-08-17T23:49:39.474Z,60.00
2017-08-17T23:52:14.022Z,60.10
2017-08-17T23:54:48.584Z,60.40
2017-08-17T23:57:23.873Z,60.60
2017-08-17T23:59:58.458Z,60.60
